Holy Angel — WDE3457 — position and weather

sailwx.info

Track history (hours):
 
Tides and Currents Weather Stations Pressure Air Temp Water Temp Dewpoint Dewpoint Depression Visibility Wind Speed Wind Dir Waves Ship Positions

Holy Angel

Owner: Marquette transportation Company LLC, Paducah, KY. More information available from US FCC via Universal Licensing System and Coast Guard Vessel Documentation Center.

Last reported at 2013-Oct-06 10:22 UTC. Time now 2014-Oct-24 07:04 UTC.
Position N 38°46' W 084°58'.
Warning: this ship's position is years out of date!

Length 40 m; draft 3 m.

Type: Towing. MMSI: 367339320.

Date/timePositionNaut miles runAvg speedWind from/ knotsBaromVisibWave heightAir tempDewpointWater temp
2013-Oct-06 10:22N 38°46' W 084°58'6 3.2
2013-Oct-06 08:33N 38°47' W 084°50'4 3.8
2013-Oct-06 07:27N 38°51' W 084°48'3 3.6
2013-Oct-06 06:33N 38°54' W 084°50'3 2.9
2013-Oct-06 05:33N 38°57' W 084°51'5 4.6
2013-Oct-06 04:33N 39°01' W 084°52'4 3.8
2013-Oct-06 03:34N 39°05' W 084°51'5 4.7
2013-Oct-06 02:33N 39°08' W 084°46'4 4.0
2013-Oct-06 01:31N 39°06' W 084°41'1 0.9
2013-Oct-06 00:33N 39°06' W 084°40'0 0.5
2013-Oct-05 23:31N 39°06' W 084°41'0 0.2
2013-Oct-05 22:33N 39°06' W 084°41'3 3.4
2013-Oct-05 21:33N 39°04' W 084°37'2 1.9
2013-Oct-05 20:33N 39°05' W 084°35'0 0.0
2013-Oct-05 19:33N 39°05' W 084°35'0 0.1
2013-Oct-05 18:33N 39°05' W 084°35'2 2.4
2013-Oct-05 17:32N 39°06' W 084°32'4 4.3
2013-Oct-05 16:33N 39°07' W 084°27'5 4.5
2013-Oct-05 15:31N 39°03' W 084°24'1 0.8
2013-Oct-05 14:33N 39°02' W 084°23'0 0.3
2013-Oct-05 13:29N 39°02' W 084°23'0 0.1
2013-Oct-05 12:33N 39°02' W 084°23'3 2.6
2013-Oct-05 11:31N 39°04' W 084°26'4 3.6
2013-Oct-05 10:32N 39°06' W 084°29'5 4.9
2013-Oct-05 09:34N 39°05' W 084°35'3 3.1
2013-Oct-05 08:33N 39°05' W 084°39'0 0.0
2013-Oct-05 07:33N 39°05' W 084°39'0 0.0
2013-Oct-05 06:32N 39°05' W 084°39'4 3.6
2013-Oct-05 05:31N 39°08' W 084°43'4 4.2
2013-Oct-05 04:31N 39°07' W 084°48'4 4.3
2013-Oct-05 03:31N 39°04' W 084°53'  
Track history (hours):
 
Tides and Currents Weather Stations Pressure Air Temp Water Temp Dewpoint Dewpoint Depression Visibility Wind Speed Wind Dir Waves Ship Positions

Holy Angel

Owner: Marquette transportation Company LLC, Paducah, KY. More information available from US FCC via Universal Licensing System and Coast Guard Vessel Documentation Center.

Last reported at 2013-Oct-06 10:22 UTC. Time now 2014-Oct-24 07:04 UTC.
Position N 38°46' W 084°58'.
Warning: this ship's position is years out of date!

Length 40 m; draft 3 m.

Type: Towing. MMSI: 367339320.

Date/timePositionNaut miles runAvg speedWind from/ knotsBaromVisibWave heightAir tempDewpointWater temp
2013-Oct-06 10:22N 38°46' W 084°58'6 3.2
2013-Oct-06 08:33N 38°47' W 084°50'4 3.8
2013-Oct-06 07:27N 38°51' W 084°48'3 3.6
2013-Oct-06 06:33N 38°54' W 084°50'3 2.9
2013-Oct-06 05:33N 38°57' W 084°51'5 4.6
2013-Oct-06 04:33N 39°01' W 084°52'4 3.8
2013-Oct-06 03:34N 39°05' W 084°51'5 4.7
2013-Oct-06 02:33N 39°08' W 084°46'4 4.0
2013-Oct-06 01:31N 39°06' W 084°41'1 0.9
2013-Oct-06 00:33N 39°06' W 084°40'0 0.5
2013-Oct-05 23:31N 39°06' W 084°41'0 0.2
2013-Oct-05 22:33N 39°06' W 084°41'3 3.4
2013-Oct-05 21:33N 39°04' W 084°37'2 1.9
2013-Oct-05 20:33N 39°05' W 084°35'0 0.0
2013-Oct-05 19:33N 39°05' W 084°35'0 0.1
2013-Oct-05 18:33N 39°05' W 084°35'2 2.4
2013-Oct-05 17:32N 39°06' W 084°32'4 4.3
2013-Oct-05 16:33N 39°07' W 084°27'5 4.5
2013-Oct-05 15:31N 39°03' W 084°24'1 0.8
2013-Oct-05 14:33N 39°02' W 084°23'0 0.3
2013-Oct-05 13:29N 39°02' W 084°23'0 0.1
2013-Oct-05 12:33N 39°02' W 084°23'3 2.6
2013-Oct-05 11:31N 39°04' W 084°26'4 3.6
2013-Oct-05 10:32N 39°06' W 084°29'5 4.9
2013-Oct-05 09:34N 39°05' W 084°35'3 3.1
2013-Oct-05 08:33N 39°05' W 084°39'0 0.0
2013-Oct-05 07:33N 39°05' W 084°39'0 0.0
2013-Oct-05 06:32N 39°05' W 084°39'4 3.6
2013-Oct-05 05:31N 39°08' W 084°43'4 4.2
2013-Oct-05 04:31N 39°07' W 084°48'4 4.3
2013-Oct-05 03:31N 39°04' W 084°53'  

Dump ship's entire track history